Time;durP1;ratioP1;P1;durP2;ratioP2;P2;SDS_P1;SDS_P2;PMS_P1;PMS_P2;Temp;Humidity;BMP_temperature;BMP_pressure;BME280_temperature;BME280_humidity;BME280_pressure;Samples;Min_cycle;Max_cycle;Signal;HPM_P1;HPM_P2
2023/06/04 00:00:25;;;;;;;2.92;2.72;;;;;;;;;;5096945;28;20412;-21
2023/06/04 00:02:52;;;;;;;2.60;2.50;;;;;;;;;;5096510;28;20028;-24
2023/06/04 00:05:18;;;;;;;3.08;2.88;;;;;;;;;;5096595;28;20028;-25
2023/06/04 00:07:44;;;;;;;2.72;2.53;;;;;;;;;;5096506;28;20020;-20
2023/06/04 00:10:10;;;;;;;2.22;2.13;;;;;;;;;;5096392;28;20024;-22
2023/06/04 00:12:36;;;;;;;3.17;2.97;;;;;;;;;;5096250;28;20028;-24
2023/06/04 00:15:03;;;;;;;2.67;2.58;;;;;;;;;;5096335;28;20028;-22
2023/06/04 00:17:29;;;;;;;2.85;2.65;;;;;;;;;;5096528;28;20039;-23
2023/06/04 00:19:55;;;;;;;2.65;2.45;;;;;;;;;;5096266;28;20028;-23
2023/06/04 00:22:21;;;;;;;2.65;2.55;;;;;;;;;;5096378;28;20024;-22
2023/06/04 00:24:47;;;;;;;2.38;2.28;;;;;;;;;;5096198;28;20024;-24
2023/06/04 00:27:13;;;;;;;2.38;2.28;;;;;;;;;;5096128;28;20053;-24
2023/06/04 00:29:39;;;;;;;2.20;2.10;;;;;;;;;;5096057;28;20101;-22
2023/06/04 00:32:06;;;;;;;2.20;2.10;;;;;;;;;;5095873;28;20089;-20
2023/06/04 00:34:32;;;;;;;2.63;2.45;;;;;;;;;;5096253;28;20092;-22
2023/06/04 00:36:58;;;;;;;2.50;2.40;;;;;;;;;;5095323;28;20016;-24
2023/06/04 00:39:24;;;;;;;2.40;2.30;;;;;;;;;;5095901;28;20026;-22
2023/06/04 00:41:50;;;;;;;2.78;2.67;;;;;;;;;;5096086;28;20103;-21
2023/06/04 00:44:17;;;;;;;2.70;2.50;;;;;;;;;;5095721;28;20093;-23
2023/06/04 00:46:45;;;;;;;2.75;2.55;;;;;;;;;;5095995;28;20107;-21
2023/06/04 00:49:12;;;;;;;2.85;2.65;;;;;;;;;;5095989;28;20367;-20
2023/06/04 00:51:38;;;;;;;2.63;2.42;;;;;;;;;;5095391;28;20130;-22
2023/06/04 00:54:08;;;;;;;2.40;2.30;;;;;;;;;;5095537;28;20020;-28
2023/06/04 00:56:35;;;;;;;2.97;2.78;;;;;;;;;;5095504;28;20038;-28
2023/06/04 00:59:01;;;;;;;2.67;2.58;;;;;;;;;;5095784;28;20028;-23
2023/06/04 01:01:40;;;;;;;2.20;2.10;;;;;;;;;;5095724;28;20073;-24
2023/06/04 01:04:09;;;;;;;2.28;2.17;;;;;;;;;;5095358;28;20024;-25
2023/06/04 01:06:44;;;;;;;2.90;2.70;;;;;;;;;;5095406;28;20103;-24
2023/06/04 01:09:11;;;;;;;2.00;1.90;;;;;;;;;;5095331;28;20028;-22
2023/06/04 01:11:38;;;;;;;2.03;1.92;;;;;;;;;;5095244;28;20450;-21
2023/06/04 01:14:08;;;;;;;2.45;2.35;;;;;;;;;;5095489;28;20080;-28
2023/06/04 01:16:40;;;;;;;2.30;2.20;;;;;;;;;;5095471;28;20046;-23
2023/06/04 01:19:20;;;;;;;2.22;2.13;;;;;;;;;;5095250;28;20016;-24
2023/06/04 01:21:48;;;;;;;2.97;2.78;;;;;;;;;;5095449;28;20031;-23
2023/06/04 01:24:16;;;;;;;2.40;2.20;;;;;;;;;;5094124;28;20403;-25
2023/06/04 01:26:42;;;;;;;2.53;2.42;;;;;;;;;;5094056;28;20133;-23
2023/06/04 01:29:09;;;;;;;2.15;2.05;;;;;;;;;;5095360;28;20451;-24
2023/06/04 01:31:36;;;;;;;2.05;1.95;;;;;;;;;;5094856;28;20085;-23
2023/06/04 01:34:02;;;;;;;2.40;2.30;;;;;;;;;;5094908;28;20019;-22
2023/06/04 01:36:28;;;;;;;2.00;1.90;;;;;;;;;;5093989;28;20024;-25
2023/06/04 01:38:54;;;;;;;2.70;2.50;;;;;;;;;;5094882;28;20350;-24
2023/06/04 01:41:21;;;;;;;2.45;2.30;;;;;;;;;;5094862;28;20084;-21
2023/06/04 01:43:47;;;;;;;2.30;2.20;;;;;;;;;;5094774;28;20039;-23
2023/06/04 01:46:13;;;;;;;2.40;2.30;;;;;;;;;;5095072;28;20039;-20
2023/06/04 01:48:40;;;;;;;2.60;2.40;;;;;;;;;;5093664;28;20474;-24
2023/06/04 01:51:06;;;;;;;2.30;2.10;;;;;;;;;;5094660;28;20044;-19
2023/06/04 01:53:32;;;;;;;2.25;2.15;;;;;;;;;;5094641;28;20470;-22
2023/06/04 01:55:59;;;;;;;2.85;2.58;;;;;;;;;;5094962;28;20036;-23
2023/06/04 01:58:28;;;;;;;2.47;2.33;;;;;;;;;;5094667;28;20016;-29
2023/06/04 02:00:55;;;;;;;2.13;2.03;;;;;;;;;;5094639;28;20021;-22
2023/06/04 02:03:22;;;;;;;2.28;2.17;;;;;;;;;;5094853;28;20016;-22
2023/06/04 02:05:49;;;;;;;2.47;2.28;;;;;;;;;;5094566;28;20466;-21
2023/06/04 02:08:20;;;;;;;2.42;2.33;;;;;;;;;;5094574;28;20038;-22
2023/06/04 02:10:49;;;;;;;3.10;2.53;;;;;;;;;;5095174;28;20043;-21
2023/06/04 02:13:15;;;;;;;2.40;2.30;;;;;;;;;;5094659;28;20028;-22
2023/06/04 02:15:42;;;;;;;3.35;2.05;;;;;;;;;;5094496;28;20024;-25
2023/06/04 02:18:20;;;;;;;2.10;2.00;;;;;;;;;;5094821;28;20020;-24
2023/06/04 02:20:47;;;;;;;2.38;2.28;;;;;;;;;;5094442;28;20047;-19
2023/06/04 02:23:14;;;;;;;2.42;2.33;;;;;;;;;;5094384;28;20016;-26
2023/06/04 02:25:40;;;;;;;1.98;1.88;;;;;;;;;;5094399;28;20020;-22
2023/06/04 02:28:06;;;;;;;2.22;2.13;;;;;;;;;;5094679;28;20028;-22
2023/06/04 02:30:33;;;;;;;2.33;2.22;;;;;;;;;;5094402;28;20025;-24
2023/06/04 02:33:00;;;;;;;2.67;2.47;;;;;;;;;;5094201;28;20032;-22
2023/06/04 02:35:27;;;;;;;2.38;2.20;;;;;;;;;;5094358;28;20022;-24
2023/06/04 02:37:53;;;;;;;2.28;2.10;;;;;;;;;;5094278;28;20020;-23
2023/06/04 02:40:20;;;;;;;2.20;2.10;;;;;;;;;;5094303;28;20028;-29
2023/06/04 02:42:46;;;;;;;2.20;2.10;;;;;;;;;;5093235;28;20040;-22
2023/06/04 02:45:12;;;;;;;2.17;2.08;;;;;;;;;;5093287;28;20043;-21
2023/06/04 02:47:38;;;;;;;2.25;2.15;;;;;;;;;;5094491;28;20054;-24
2023/06/04 02:50:05;;;;;;;2.03;1.92;;;;;;;;;;5094229;28;20109;-21
2023/06/04 02:52:32;;;;;;;2.33;2.15;;;;;;;;;;5093814;28;20048;-22
2023/06/04 02:54:59;;;;;;;2.10;2.00;;;;;;;;;;5094203;28;20016;-21
2023/06/04 02:57:25;;;;;;;2.22;2.13;;;;;;;;;;5094379;28;20089;-23
2023/06/04 02:59:52;;;;;;;2.30;2.20;;;;;;;;;;5096245;28;20443;-21
2023/06/04 03:02:18;;;;;;;2.38;2.28;;;;;;;;;;5097994;28;20032;-28
2023/06/04 03:04:45;;;;;;;2.20;2.10;;;;;;;;;;5098030;28;20028;-20
2023/06/04 03:07:11;;;;;;;2.00;1.90;;;;;;;;;;5097983;28;20035;-23
2023/06/04 03:09:37;;;;;;;2.22;2.13;;;;;;;;;;5097951;28;20024;-25
2023/06/04 03:12:03;;;;;;;2.22;2.13;;;;;;;;;;5097736;28;20031;-21
2023/06/04 03:14:33;;;;;;;2.20;2.10;;;;;;;;;;5097540;28;20024;-22
2023/06/04 03:17:10;;;;;;;2.25;2.15;;;;;;;;;;5098552;28;20363;-25
2023/06/04 03:19:40;;;;;;;2.15;2.05;;;;;;;;;;5097757;28;20012;-20
2023/06/04 03:22:07;;;;;;;2.10;2.00;;;;;;;;;;5096351;28;20028;-22
2023/06/04 03:24:36;;;;;;;2.05;1.95;;;;;;;;;;5097378;28;20023;-24
2023/06/04 03:27:03;;;;;;;2.10;2.00;;;;;;;;;;5097300;28;20048;-26
2023/06/04 03:29:33;;;;;;;2.60;2.50;;;;;;;;;;5097280;28;20028;-22
2023/06/04 03:31:59;;;;;;;2.42;2.33;;;;;;;;;;5096226;28;20032;-22
2023/06/04 03:34:25;;;;;;;2.28;2.00;;;;;;;;;;5097462;28;20028;-26
2023/06/04 03:36:55;;;;;;;2.30;2.10;;;;;;;;;;5097367;28;20020;-21
2023/06/04 03:39:21;;;;;;;2.13;2.03;;;;;;;;;;5097086;28;20504;-26
2023/06/04 03:41:47;;;;;;;2.30;2.20;;;;;;;;;;5097349;28;20107;-21
2023/06/04 03:44:14;;;;;;;2.25;2.15;;;;;;;;;;5096894;28;20024;-22
2023/06/04 03:46:41;;;;;;;3.13;1.98;;;;;;;;;;5097185;28;20121;-23
2023/06/04 03:49:07;;;;;;;1.90;1.80;;;;;;;;;;5097195;28;20432;-24
2023/06/04 03:51:34;;;;;;;2.05;1.95;;;;;;;;;;5096593;28;20516;-21
2023/06/04 03:54:01;;;;;;;2.15;2.05;;;;;;;;;;5096966;28;20024;-20
2023/06/04 03:56:28;;;;;;;2.00;1.90;;;;;;;;;;5097040;28;20016;-23
2023/06/04 03:58:54;;;;;;;2.42;2.33;;;;;;;;;;5097025;28;20025;-20
2023/06/04 04:01:20;;;;;;;1.90;1.80;;;;;;;;;;5096659;28;20445;-21
2023/06/04 04:03:49;;;;;;;2.33;2.22;;;;;;;;;;5096526;28;20416;-19
2023/06/04 04:06:16;;;;;;;2.13;2.03;;;;;;;;;;5096496;28;20040;-23
2023/06/04 04:08:43;;;;;;;2.13;2.03;;;;;;;;;;5096770;28;20063;-27
2023/06/04 04:11:09;;;;;;;2.00;1.90;;;;;;;;;;5096324;28;20046;-26
2023/06/04 04:13:36;;;;;;;2.10;2.00;;;;;;;;;;5096332;28;20039;-23
2023/06/04 04:16:02;;;;;;;2.10;2.00;;;;;;;;;;5096341;28;20050;-22
2023/06/04 04:18:28;;;;;;;2.03;1.92;;;;;;;;;;5096253;28;20044;-24
2023/06/04 04:20:55;;;;;;;1.98;1.88;;;;;;;;;;5096554;28;20092;-22
2023/06/04 04:23:23;;;;;;;2.50;2.30;;;;;;;;;;5096131;28;20029;-23
2023/06/04 04:25:49;;;;;;;2.10;2.00;;;;;;;;;;5096133;28;20038;-23
2023/06/04 04:28:17;;;;;;;2.20;2.10;;;;;;;;;;5096091;28;20031;-20
2023/06/04 04:30:44;;;;;;;2.28;2.17;;;;;;;;;;5096836;28;20032;-25
2023/06/04 04:33:10;;;;;;;2.20;2.10;;;;;;;;;;5096150;28;20024;-25
2023/06/04 04:35:37;;;;;;;2.17;1.98;;;;;;;;;;5096293;28;20020;-23
2023/06/04 04:38:07;;;;;;;1.90;1.80;;;;;;;;;;5096155;28;20020;-26
2023/06/04 04:40:33;;;;;;;2.08;1.98;;;;;;;;;;5096201;28;20016;-20
2023/06/04 04:42:59;;;;;;;1.83;1.73;;;;;;;;;;5095917;28;20093;-19
2023/06/04 04:45:25;;;;;;;1.77;1.67;;;;;;;;;;5096070;28;20020;-23
2023/06/04 04:47:51;;;;;;;2.25;2.15;;;;;;;;;;5095990;28;20081;-23
2023/06/04 04:50:17;;;;;;;1.92;1.83;;;;;;;;;;5095996;28;20031;-22
2023/06/04 04:52:44;;;;;;;2.00;1.90;;;;;;;;;;5095386;28;20051;-22
2023/06/04 04:55:11;;;;;;;1.85;1.75;;;;;;;;;;5095913;28;20058;-29
2023/06/04 04:57:38;;;;;;;2.15;2.05;;;;;;;;;;5094626;28;20082;-22
2023/06/04 05:00:09;;;;;;;2.30;2.10;;;;;;;;;;5095498;28;20023;-23
2023/06/04 05:02:36;;;;;;;2.03;1.92;;;;;;;;;;5095702;28;20077;-21
2023/06/04 05:05:02;;;;;;;1.98;1.88;;;;;;;;;;5095425;28;20031;-23
2023/06/04 05:07:28;;;;;;;2.15;2.05;;;;;;;;;;5095669;28;20028;-22
2023/06/04 05:09:54;;;;;;;2.00;1.90;;;;;;;;;;5095631;28;20431;-21
2023/06/04 05:12:20;;;;;;;2.75;2.55;;;;;;;;;;5095139;28;20031;-28
2023/06/04 05:14:47;;;;;;;1.80;1.70;;;;;;;;;;5095309;28;20040;-22
2023/06/04 05:17:16;;;;;;;1.95;1.85;;;;;;;;;;5095248;28;20393;-21
2023/06/04 05:19:42;;;;;;;1.70;1.60;;;;;;;;;;5094585;28;20103;-24
2023/06/04 05:22:08;;;;;;;1.95;1.85;;;;;;;;;;5095215;28;20024;-24
2023/06/04 05:24:34;;;;;;;1.98;1.88;;;;;;;;;;5095414;28;20355;-23
2023/06/04 05:27:03;;;;;;;2.25;2.15;;;;;;;;;;5094482;28;20357;-22
2023/06/04 05:29:29;;;;;;;1.95;1.85;;;;;;;;;;5095071;28;20020;-21
2023/06/04 05:31:55;;;;;;;2.00;1.90;;;;;;;;;;5094970;28;20458;-22
2023/06/04 05:34:22;;;;;;;2.00;1.90;;;;;;;;;;5095183;28;20107;-22
2023/06/04 05:36:48;;;;;;;2.50;2.30;;;;;;;;;;5094992;28;20425;-24
2023/06/04 05:39:14;;;;;;;2.03;1.92;;;;;;;;;;5094965;28;20114;-20
2023/06/04 05:41:40;;;;;;;1.90;1.80;;;;;;;;;;5095150;28;20024;-21
2023/06/04 05:44:07;;;;;;;2.00;1.90;;;;;;;;;;5095041;28;20051;-20
2023/06/04 05:46:33;;;;;;;2.15;1.98;;;;;;;;;;5094844;28;20051;-20
2023/06/04 05:48:59;;;;;;;2.17;2.08;;;;;;;;;;5095079;28;20024;-23
2023/06/04 05:51:26;;;;;;;2.15;2.05;;;;;;;;;;5094485;28;20069;-21
2023/06/04 05:53:52;;;;;;;1.77;1.67;;;;;;;;;;5094665;28;20034;-27
2023/06/04 05:56:18;;;;;;;1.70;1.60;;;;;;;;;;5094756;28;20073;-22
2023/06/04 05:58:44;;;;;;;2.03;1.92;;;;;;;;;;5095004;28;20024;-23
2023/06/04 06:01:11;;;;;;;1.92;1.83;;;;;;;;;;5094916;28;20077;-21
2023/06/04 06:03:37;;;;;;;2.05;1.95;;;;;;;;;;5094854;28;20107;-21
2023/06/04 06:06:05;;;;;;;2.25;2.15;;;;;;;;;;5093637;28;20466;-24
2023/06/04 06:08:31;;;;;;;1.95;1.85;;;;;;;;;;5094854;28;20452;-21
2023/06/04 06:10:57;;;;;;;1.70;1.60;;;;;;;;;;5094559;28;20032;-20
2023/06/04 06:13:23;;;;;;;1.95;1.85;;;;;;;;;;5094440;28;20029;-20
2023/06/04 06:15:50;;;;;;;1.85;1.75;;;;;;;;;;5094534;28;20026;-26
2023/06/04 06:18:16;;;;;;;2.30;2.20;;;;;;;;;;5094811;28;20089;-22
2023/06/04 06:20:43;;;;;;;1.80;1.70;;;;;;;;;;5094510;28;20354;-21
2023/06/04 06:23:09;;;;;;;2.10;1.90;;;;;;;;;;5094642;28;20055;-21
2023/06/04 06:25:35;;;;;;;1.70;1.60;;;;;;;;;;5094725;28;20028;-22
2023/06/04 06:28:01;;;;;;;2.00;1.90;;;;;;;;;;5094460;28;20028;-22
2023/06/04 06:30:27;;;;;;;2.20;2.10;;;;;;;;;;5094410;28;20047;-22
2023/06/04 06:32:54;;;;;;;1.73;1.63;;;;;;;;;;5094244;28;20481;-26
2023/06/04 06:35:20;;;;;;;2.17;2.08;;;;;;;;;;5097489;28;20028;-24
2023/06/04 06:37:46;;;;;;;1.67;1.58;;;;;;;;;;5098333;28;20028;-20
2023/06/04 06:40:12;;;;;;;1.75;1.65;;;;;;;;;;5098537;28;20046;-22
2023/06/04 06:42:38;;;;;;;2.17;2.08;;;;;;;;;;5098308;28;20115;-24
2023/06/04 06:45:05;;;;;;;1.88;1.77;;;;;;;;;;5098183;28;20032;-22
2023/06/04 06:47:31;;;;;;;2.00;1.90;;;;;;;;;;5098150;28;20016;-22
2023/06/04 06:49:57;;;;;;;1.70;1.60;;;;;;;;;;5098115;28;20102;-25
2023/06/04 06:52:23;;;;;;;2.15;2.05;;;;;;;;;;5097805;28;20100;-23
2023/06/04 06:54:50;;;;;;;2.35;2.25;;;;;;;;;;5097966;28;20458;-20
2023/06/04 06:57:16;;;;;;;2.03;1.92;;;;;;;;;;5098234;28;20384;-22
2023/06/04 06:59:43;;;;;;;2.15;2.05;;;;;;;;;;5097852;28;20046;-23
2023/06/04 07:02:09;;;;;;;1.80;1.70;;;;;;;;;;5097745;28;20028;-22
2023/06/04 07:04:36;;;;;;;1.90;1.80;;;;;;;;;;5097819;28;20020;-19
2023/06/04 07:07:02;;;;;;;1.83;1.73;;;;;;;;;;5097726;28;20023;-19
2023/06/04 07:09:29;;;;;;;2.08;1.98;;;;;;;;;;5097947;28;20032;-20
2023/06/04 07:11:55;;;;;;;1.63;1.52;;;;;;;;;;5097866;28;20381;-18
2023/06/04 07:14:21;;;;;;;2.00;1.90;;;;;;;;;;5097463;28;20020;-21
2023/06/04 07:16:47;;;;;;;1.98;1.88;;;;;;;;;;5097558;28;20093;-24
2023/06/04 07:19:13;;;;;;;2.28;2.17;;;;;;;;;;5097516;28;20020;-27
2023/06/04 07:21:39;;;;;;;1.88;1.77;;;;;;;;;;5097426;28;20027;-21
2023/06/04 07:24:05;;;;;;;2.00;1.90;;;;;;;;;;5097621;28;20024;-22
2023/06/04 07:26:32;;;;;;;1.90;1.80;;;;;;;;;;5097674;28;20020;-22
2023/06/04 07:28:58;;;;;;;1.98;1.88;;;;;;;;;;5097552;28;20024;-22
2023/06/04 07:31:25;;;;;;;2.13;2.03;;;;;;;;;;5097449;28;20024;-22
2023/06/04 07:33:51;;;;;;;2.20;2.10;;;;;;;;;;5097106;28;20024;-20
2023/06/04 07:36:17;;;;;;;1.90;1.80;;;;;;;;;;5097204;28;20016;-22
2023/06/04 07:38:43;;;;;;;1.90;1.80;;;;;;;;;;5096129;28;20455;-23
2023/06/04 07:41:10;;;;;;;1.90;1.80;;;;;;;;;;5097344;28;20085;-23
2023/06/04 07:43:36;;;;;;;2.15;2.05;;;;;;;;;;5096934;28;20020;-21
2023/06/04 07:46:05;;;;;;;1.83;1.73;;;;;;;;;;5096659;28;20046;-23
2023/06/04 07:48:32;;;;;;;1.92;1.83;;;;;;;;;;5096920;28;20050;-25
2023/06/04 07:50:58;;;;;;;2.10;2.00;;;;;;;;;;5096702;28;20105;-23
2023/06/04 07:53:25;;;;;;;1.90;1.80;;;;;;;;;;5097036;28;20028;-19
2023/06/04 07:55:51;;;;;;;1.83;1.73;;;;;;;;;;5097066;28;20355;-25
2023/06/04 07:58:18;;;;;;;1.80;1.70;;;;;;;;;;5096797;28;20355;-22
2023/06/04 08:00:44;;;;;;;2.33;2.22;;;;;;;;;;5096686;28;20024;-23
2023/06/04 08:03:10;;;;;;;2.15;2.05;;;;;;;;;;5096889;28;20482;-22
2023/06/04 08:05:36;;;;;;;2.13;2.03;;;;;;;;;;5096559;28;20032;-24
2023/06/04 08:08:03;;;;;;;2.03;1.92;;;;;;;;;;5096589;28;20028;-23
2023/06/04 08:10:29;;;;;;;2.20;2.10;;;;;;;;;;5096774;28;20032;-26
2023/06/04 08:12:56;;;;;;;2.03;1.92;;;;;;;;;;5096308;28;20039;-23
2023/06/04 08:15:22;;;;;;;2.10;2.00;;;;;;;;;;5096371;28;20017;-23
2023/06/04 08:17:48;;;;;;;1.67;1.58;;;;;;;;;;5096664;28;20024;-20
2023/06/04 08:20:15;;;;;;;2.08;1.98;;;;;;;;;;5096331;28;20031;-20
2023/06/04 08:22:41;;;;;;;2.05;1.95;;;;;;;;;;5096412;28;20040;-23
2023/06/04 08:25:08;;;;;;;1.98;1.88;;;;;;;;;;5096523;28;20039;-27
2023/06/04 08:27:34;;;;;;;2.08;1.98;;;;;;;;;;5096400;28;20036;-22
2023/06/04 08:30:01;;;;;;;1.95;1.85;;;;;;;;;;5096160;28;20038;-22
2023/06/04 08:32:28;;;;;;;1.90;1.80;;;;;;;;;;5095897;28;20028;-22
2023/06/04 08:34:55;;;;;;;1.52;1.52;;;;;;;;;;5095063;28;20359;-24
2023/06/04 08:37:21;;;;;;;1.80;1.70;;;;;;;;;;5096740;28;20028;-22
2023/06/04 08:39:47;;;;;;;2.20;2.10;;;;;;;;;;5095903;28;20046;-24
2023/06/04 08:42:19;;;;;;;2.00;1.90;;;;;;;;;;5094900;28;20043;-22
2023/06/04 08:44:47;;;;;;;1.67;1.58;;;;;;;;;;5095869;28;20065;-28
2023/06/04 08:47:13;;;;;;;2.22;2.13;;;;;;;;;;5095822;28;20528;-24
2023/06/04 08:49:41;;;;;;;2.10;2.00;;;;;;;;;;5095762;28;20031;-25
2023/06/04 08:52:07;;;;;;;2.00;1.90;;;;;;;;;;5095380;28;20139;-27
2023/06/04 08:54:33;;;;;;;1.88;1.77;;;;;;;;;;5095917;28;20016;-24
2023/06/04 08:57:01;;;;;;;2.00;1.90;;;;;;;;;;5095180;28;20038;-27
2023/06/04 08:59:28;;;;;;;1.70;1.60;;;;;;;;;;5095583;28;20062;-25
2023/06/04 09:01:54;;;;;;;1.90;1.80;;;;;;;;;;5095547;28;20024;-23
2023/06/04 09:04:21;;;;;;;2.05;1.95;;;;;;;;;;5094474;28;20024;-26
2023/06/04 09:06:47;;;;;;;2.05;1.95;;;;;;;;;;5095680;28;20032;-25
2023/06/04 09:09:15;;;;;;;1.77;1.67;;;;;;;;;;5095401;28;20032;-22
2023/06/04 09:11:47;;;;;;;2.00;1.90;;;;;;;;;;5095290;28;20092;-23
2023/06/04 09:14:16;;;;;;;1.98;1.88;;;;;;;;;;5095468;28;20020;-29
2023/06/04 09:16:50;;;;;;;2.03;1.92;;;;;;;;;;5095179;28;20031;-22
2023/06/04 09:19:17;;;;;;;2.40;2.30;;;;;;;;;;5095538;28;20103;-22
2023/06/04 09:22:09;;;;;;;1.90;1.80;;;;;;;;;;5095434;28;20441;-23
2023/06/04 09:24:46;;;;;;;2.08;1.98;;;;;;;;;;5091680;28;20036;-23
2023/06/04 09:27:19;;;;;;;2.00;1.90;;;;;;;;;;5094230;28;20492;-20
2023/06/04 09:30:00;;;;;;;2.53;2.35;;;;;;;;;;5095338;28;20070;-25
2023/06/04 09:32:27;;;;;;;2.00;1.90;;;;;;;;;;5095219;28;20165;-24
2023/06/04 09:34:53;;;;;;;2.35;2.25;;;;;;;;;;5095243;28;20307;-22
2023/06/04 09:37:22;;;;;;;2.33;2.22;;;;;;;;;;5095203;28;20023;-24
2023/06/04 09:39:55;;;;;;;2.08;1.98;;;;;;;;;;5095223;28;20024;-22
2023/06/04 09:42:24;;;;;;;2.25;2.10;;;;;;;;;;5093894;28;20077;-18
2023/06/04 09:44:50;;;;;;;2.17;2.08;;;;;;;;;;5094830;28;20035;-23
2023/06/04 09:47:17;;;;;;;1.80;1.70;;;;;;;;;;5094917;28;20066;-22
2023/06/04 09:49:46;;;;;;;2.10;2.00;;;;;;;;;;5094785;28;20054;-21
2023/06/04 09:52:13;;;;;;;2.17;2.08;;;;;;;;;;5094944;28;20047;-27
2023/06/04 09:54:41;;;;;;;2.15;1.95;;;;;;;;;;5094969;28;20035;-23
2023/06/04 09:57:20;;;;;;;1.90;1.80;;;;;;;;;;5095006;28;20020;-21
2023/06/04 09:59:49;;;;;;;2.00;1.90;;;;;;;;;;5094966;28;20020;-22
2023/06/04 10:02:19;;;;;;;2.30;2.20;;;;;;;;;;5094542;28;20463;-18
2023/06/04 10:04:49;;;;;;;2.27;2.17;;;;;;;;;;5094639;28;20028;-23
2023/06/04 10:07:15;;;;;;;1.80;1.70;;;;;;;;;;5094649;28;20046;-19
2023/06/04 10:09:46;;;;;;;2.35;2.25;;;;;;;;;;5098594;28;20394;-20
2023/06/04 10:12:16;;;;;;;1.92;1.83;;;;;;;;;;5098670;28;20039;-22
2023/06/04 10:14:46;;;;;;;2.35;2.25;;;;;;;;;;5098965;28;20020;-24
2023/06/04 10:17:13;;;;;;;2.60;2.50;;;;;;;;;;5098949;28;20020;-20
2023/06/04 10:19:41;;;;;;;2.38;2.17;;;;;;;;;;5098650;28;20028;-24
2023/06/04 10:22:09;;;;;;;2.20;2.10;;;;;;;;;;5098500;28;20459;-22
2023/06/04 10:24:35;;;;;;;1.90;1.80;;;;;;;;;;5098524;28;20028;-25
2023/06/04 10:27:02;;;;;;;2.53;2.42;;;;;;;;;;5098521;28;20031;-25
2023/06/04 10:29:30;;;;;;;2.47;2.38;;;;;;;;;;5098734;28;20077;-23
2023/06/04 10:31:56;;;;;;;2.00;1.90;;;;;;;;;;5098632;28;20135;-26
2023/06/04 10:34:23;;;;;;;2.45;2.35;;;;;;;;;;5097329;28;20031;-22
2023/06/04 10:36:49;;;;;;;2.33;2.10;;;;;;;;;;5098598;28;20066;-26
2023/06/04 10:39:25;;;;;;;2.20;2.10;;;;;;;;;;5099031;28;20035;-23
2023/06/04 10:41:59;;;;;;;1.95;1.85;;;;;;;;;;5098509;28;20027;-23
2023/06/04 10:44:25;;;;;;;2.35;2.25;;;;;;;;;;5098490;28;20118;-24
2023/06/04 10:46:51;;;;;;;1.92;1.83;;;;;;;;;;5098180;28;20097;-22
2023/06/04 10:49:26;;;;;;;2.53;2.42;;;;;;;;;;5098110;28;20024;-21
2023/06/04 10:51:52;;;;;;;2.33;2.22;;;;;;;;;;5097860;28;20048;-24
2023/06/04 10:54:25;;;;;;;2.20;2.10;;;;;;;;;;5097950;28;20020;-21
2023/06/04 10:56:51;;;;;;;2.00;1.90;;;;;;;;;;5097856;28;20107;-19
2023/06/04 10:59:18;;;;;;;2.38;2.28;;;;;;;;;;5096995;28;20031;-22
2023/06/04 11:01:44;;;;;;;2.00;1.90;;;;;;;;;;5098156;28;20020;-21
2023/06/04 11:04:21;;;;;;;2.20;2.10;;;;;;;;;;5097772;28;20024;-24
2023/06/04 11:06:47;;;;;;;2.30;2.20;;;;;;;;;;5097718;28;20446;-23
2023/06/04 11:09:16;;;;;;;2.17;2.00;;;;;;;;;;5097712;28;20032;-21
2023/06/04 11:11:43;;;;;;;2.33;2.22;;;;;;;;;;5097868;28;20028;-20
2023/06/04 11:14:12;;;;;;;2.10;2.00;;;;;;;;;;5098316;28;20089;-20
2023/06/04 11:16:39;;;;;;;2.35;2.25;;;;;;;;;;5097860;28;20351;-23
2023/06/04 11:19:05;;;;;;;2.10;2.00;;;;;;;;;;5097302;28;20019;-27
2023/06/04 11:21:34;;;;;;;2.67;2.22;;;;;;;;;;5097262;28;20099;-21
2023/06/04 11:24:00;;;;;;;2.50;2.40;;;;;;;;;;5097632;28;20020;-23
2023/06/04 11:26:36;;;;;;;2.20;2.10;;;;;;;;;;5097924;28;20083;-21
2023/06/04 11:29:06;;;;;;;2.15;2.05;;;;;;;;;;5097651;28;20389;-21
2023/06/04 11:31:42;;;;;;;2.25;2.15;;;;;;;;;;5097545;28;20347;-26
2023/06/04 11:34:08;;;;;;;2.13;2.03;;;;;;;;;;5097161;28;20024;-31
2023/06/04 11:36:36;;;;;;;2.28;2.17;;;;;;;;;;5097224;28;20085;-24
2023/06/04 11:39:06;;;;;;;2.30;2.20;;;;;;;;;;5097132;28;20088;-23
2023/06/04 11:41:32;;;;;;;1.85;1.75;;;;;;;;;;5097200;28;20035;-18
2023/06/04 11:44:03;;;;;;;2.40;2.30;;;;;;;;;;5096983;28;20016;-23
2023/06/04 11:46:29;;;;;;;2.45;2.35;;;;;;;;;;5096910;28;20039;-27
2023/06/04 11:48:55;;;;;;;2.38;2.22;;;;;;;;;;5097227;28;20051;-23
2023/06/04 11:51:22;;;;;;;2.35;2.25;;;;;;;;;;5096825;28;20094;-23
2023/06/04 11:53:48;;;;;;;2.20;2.10;;;;;;;;;;5095820;28;20020;-22
2023/06/04 11:56:15;;;;;;;2.20;2.10;;;;;;;;;;5096842;28;20016;-21
2023/06/04 11:58:41;;;;;;;1.80;1.70;;;;;;;;;;5096782;28;20016;-21
2023/06/04 12:01:11;;;;;;;1.98;1.88;;;;;;;;;;5096769;28;20024;-21
2023/06/04 12:03:38;;;;;;;2.10;2.00;;;;;;;;;;5096573;28;20024;-20
2023/06/04 12:06:11;;;;;;;2.67;2.58;;;;;;;;;;5095720;28;20035;-19
2023/06/04 12:08:53;;;;;;;2.33;2.22;;;;;;;;;;5096519;28;20035;-19
2023/06/04 12:11:26;;;;;;;2.35;2.25;;;;;;;;;;5096479;28;20070;-19
2023/06/04 12:13:52;;;;;;;2.45;2.25;;;;;;;;;;5097252;28;20335;-24
2023/06/04 12:16:18;;;;;;;2.00;1.90;;;;;;;;;;5096701;28;20046;-22
2023/06/04 12:18:44;;;;;;;2.00;1.90;;;;;;;;;;5096331;28;20030;-22
2023/06/04 12:21:27;;;;;;;2.20;2.10;;;;;;;;;;5096386;28;20024;-23
2023/06/04 12:23:54;;;;;;;2.13;2.03;;;;;;;;;;5095263;28;20031;-21
2023/06/04 12:26:28;;;;;;;2.50;2.40;;;;;;;;;;5096488;28;20024;-19
2023/06/04 12:29:01;;;;;;;2.78;2.58;;;;;;;;;;5096179;28;20031;-25
2023/06/04 12:31:31;;;;;;;2.20;2.10;;;;;;;;;;5095288;28;20038;-21
2023/06/04 12:33:58;;;;;;;2.38;2.28;;;;;;;;;;5096318;28;20043;-22
2023/06/04 12:36:24;;;;;;;2.08;1.98;;;;;;;;;;5096054;28;20020;-21
2023/06/04 12:38:50;;;;;;;2.13;2.03;;;;;;;;;;5096258;28;20024;-19
2023/06/04 12:41:16;;;;;;;2.33;2.22;;;;;;;;;;5096249;28;20035;-19
2023/06/04 12:43:42;;;;;;;2.05;1.95;;;;;;;;;;5095833;28;20367;-23
2023/06/04 12:46:09;;;;;;;1.90;1.80;;;;;;;;;;5096154;28;20034;-22
2023/06/04 12:48:35;;;;;;;2.42;2.22;;;;;;;;;;5094884;28;20028;-23
2023/06/04 12:51:01;;;;;;;2.28;2.17;;;;;;;;;;5095747;28;20402;-20
2023/06/04 12:53:27;;;;;;;2.40;2.30;;;;;;;;;;5095902;28;20031;-26
2023/06/04 12:55:53;;;;;;;2.08;1.98;;;;;;;;;;5095904;28;20024;-20
2023/06/04 12:58:19;;;;;;;2.15;2.05;;;;;;;;;;5095636;28;20056;-23
2023/06/04 13:00:45;;;;;;;2.20;2.10;;;;;;;;;;5095577;28;20332;-22
2023/06/04 13:03:11;;;;;;;2.17;2.08;;;;;;;;;;5095761;28;20036;-24
2023/06/04 13:05:37;;;;;;;2.58;2.47;;;;;;;;;;5095560;28;20405;-22
2023/06/04 13:08:04;;;;;;;2.00;1.90;;;;;;;;;;5095482;28;20034;-23
2023/06/04 13:10:30;;;;;;;2.22;2.13;;;;;;;;;;5094434;28;20472;-20
2023/06/04 13:12:57;;;;;;;2.10;2.00;;;;;;;;;;5095164;28;20028;-23
2023/06/04 13:15:23;;;;;;;2.10;1.95;;;;;;;;;;5095331;28;20108;-19
2023/06/04 13:17:49;;;;;;;2.28;2.10;;;;;;;;;;5095270;28;20157;-19
2023/06/04 13:20:15;;;;;;;2.30;2.20;;;;;;;;;;5095836;28;20039;-21
2023/06/04 13:22:43;;;;;;;2.38;2.28;;;;;;;;;;5095109;28;20085;-28
2023/06/04 13:25:09;;;;;;;2.20;2.10;;;;;;;;;;5095169;28;20028;-23
2023/06/04 13:27:35;;;;;;;2.38;2.28;;;;;;;;;;5095407;28;20031;-33
2023/06/04 13:30:02;;;;;;;1.92;1.83;;;;;;;;;;5094154;28;20024;-30
2023/06/04 13:32:28;;;;;;;2.08;1.98;;;;;;;;;;5095213;28;20016;-22
2023/06/04 13:34:54;;;;;;;2.38;2.28;;;;;;;;;;5095295;28;20051;-21
2023/06/04 13:37:20;;;;;;;2.20;2.10;;;;;;;;;;5095301;28;20427;-19
2023/06/04 13:39:46;;;;;;;2.28;2.17;;;;;;;;;;5095257;28;20055;-20
2023/06/04 13:42:12;;;;;;;2.70;2.50;;;;;;;;;;5094660;28;20020;-22
2023/06/04 13:44:38;;;;;;;1.90;1.80;;;;;;;;;;5094701;28;20039;-25
2023/06/04 13:47:04;;;;;;;2.60;2.40;;;;;;;;;;5094877;28;20036;-23
2023/06/04 13:49:34;;;;;;;2.38;2.28;;;;;;;;;;5094861;28;20031;-21
2023/06/04 13:52:01;;;;;;;2.40;2.30;;;;;;;;;;5093476;28;20106;-21
2023/06/04 13:54:28;;;;;;;2.03;1.92;;;;;;;;;;5094741;28;20077;-19
2023/06/04 13:56:55;;;;;;;2.10;2.00;;;;;;;;;;5094733;28;20359;-22
2023/06/04 13:59:21;;;;;;;2.30;2.20;;;;;;;;;;5095020;28;20103;-21
2023/06/04 14:01:47;;;;;;;2.30;2.20;;;;;;;;;;5094703;28;20030;-25
2023/06/04 14:04:13;;;;;;;2.33;2.22;;;;;;;;;;5094708;28;20093;-24
2023/06/04 14:06:39;;;;;;;2.25;2.15;;;;;;;;;;5094600;28;20111;-24
2023/06/04 14:09:06;;;;;;;2.30;2.20;;;;;;;;;;5094936;28;20096;-23
2023/06/04 14:11:33;;;;;;;2.53;2.40;;;;;;;;;;5094572;28;20103;-23
2023/06/04 14:13:59;;;;;;;2.13;2.03;;;;;;;;;;5094540;28;20020;-22
2023/06/04 14:16:25;;;;;;;2.22;2.13;;;;;;;;;;5094593;28;20024;-25
2023/06/04 14:18:51;;;;;;;2.45;2.25;;;;;;;;;;5094561;28;20154;-21
2023/06/04 14:21:18;;;;;;;2.47;2.38;;;;;;;;;;5094584;28;20078;-25
2023/06/04 14:23:44;;;;;;;1.83;1.73;;;;;;;;;;5094455;28;20034;-23
2023/06/04 14:26:11;;;;;;;2.17;2.08;;;;;;;;;;5095047;28;20035;-22
2023/06/04 14:28:38;;;;;;;2.30;2.20;;;;;;;;;;5094724;28;20042;-23
2023/06/04 14:31:04;;;;;;;2.90;2.70;;;;;;;;;;5095289;28;20056;-21
2023/06/04 14:33:30;;;;;;;2.38;2.20;;;;;;;;;;5094511;28;20036;-23
2023/06/04 14:35:56;;;;;;;2.38;2.22;;;;;;;;;;5094690;28;20016;-22
2023/06/04 14:38:23;;;;;;;2.17;2.08;;;;;;;;;;5094643;28;20051;-21
2023/06/04 14:40:49;;;;;;;2.60;2.50;;;;;;;;;;5094383;28;20099;-22
2023/06/04 14:43:16;;;;;;;2.45;2.35;;;;;;;;;;5094305;28;20419;-21